Airport View

Enter AWOS ICAO identifier for current METAR.

ex. KFNL

KIML 100253Z AUTO 10SM SCT055 26/19 A3002 RMK AO2 SLP136 T02560194 53021

10 Jul 2020 03:33

Frequency: 124.175

Phone: 308-882-5186

Other Area AWOS: KHEQ - KOGA - K2V5 - KSYF

TAF KMCK 092340Z 1000/1024 11011KT P6SM SCT050 FM101500 15008KT P6SM SCT070